Terminal Aerodrome Forecast
Issued by NWS Louisville, KY

Home | Current Version | Previous Version | Text Only | Print | Product List | Glossary On
Versions: 1 2 3 4 5 6 7 8 9 10 11 12 13 14 15 16
967
FTUS43 KLMK 252320
TAFLEX
TAF
KLEX 252320Z 2600/2624 28010KT P6SM FEW030 BKN040
     FM260600 22005KT P6SM SCT030
     FM261500 22010KT P6SM FEW040 BKN100=

USA.gov is the U.S. government's official web portal to all federal, state and local government web resources and services.